createdAt,value
2024-02-08T00:01:52.609Z,6.96
2024-02-08T00:05:30.678Z,6.93
2024-02-08T00:09:21.042Z,6.91
2024-02-08T00:13:04.004Z,6.90
2024-02-08T00:17:02.177Z,6.81
2024-02-08T00:21:18.308Z,6.82
2024-02-08T00:29:11.523Z,6.85
2024-02-08T00:32:52.994Z,6.81
2024-02-08T00:40:58.735Z,6.73
2024-02-08T00:44:57.065Z,6.39
2024-02-08T00:48:58.855Z,6.62
2024-02-08T00:53:04.339Z,6.74
2024-02-08T00:56:31.880Z,6.80
2024-02-08T00:59:40.376Z,6.79
2024-02-08T01:02:48.203Z,6.84
2024-02-08T01:05:57.573Z,6.84
2024-02-08T01:09:59.517Z,7.02
2024-02-08T01:14:25.790Z,7.12
2024-02-08T01:18:47.104Z,7.21
2024-02-08T01:31:17.028Z,7.28
2024-02-08T01:35:39.933Z,7.24
2024-02-08T01:39:49.935Z,7.20
2024-02-08T01:52:17.243Z,7.21
2024-02-08T02:01:22.811Z,7.29
2024-02-08T02:09:27.413Z,7.30
2024-02-08T02:12:35.845Z,7.26
2024-02-08T02:15:47.875Z,7.27
2024-02-08T02:18:55.722Z,7.27
2024-02-08T02:22:09.121Z,7.29
2024-02-08T02:25:18.144Z,7.25
2024-02-08T02:28:26.734Z,7.19
2024-02-08T02:31:35.932Z,7.16
2024-02-08T02:34:49.369Z,7.16
2024-02-08T02:38:04.372Z,7.13
2024-02-08T02:41:33.564Z,7.11
2024-02-08T02:50:02.524Z,7.14
2024-02-08T03:03:13.013Z,7.17
2024-02-08T03:07:45.143Z,7.21
2024-02-08T03:11:07.119Z,7.32
2024-02-08T03:14:16.777Z,7.37
2024-02-08T03:17:24.960Z,7.39
2024-02-08T03:20:33.995Z,7.42
2024-02-08T03:23:44.750Z,7.44
2024-02-08T03:35:45.273Z,7.56
2024-02-08T03:40:17.009Z,7.64
2024-02-08T03:49:20.162Z,7.68
2024-02-08T03:57:40.104Z,7.59
2024-02-08T04:01:30.645Z,7.54
2024-02-08T04:06:09.823Z,7.54
2024-02-08T04:14:32.189Z,7.51
2024-02-08T04:19:05.255Z,7.49
2024-02-08T04:23:37.175Z,7.53
2024-02-08T04:31:48.116Z,7.62
2024-02-08T04:36:06.853Z,7.58
2024-02-08T04:40:05.150Z,7.57
2024-02-08T04:44:08.355Z,7.56
2024-02-08T04:48:11.516Z,7.53
2024-02-08T04:55:34.899Z,7.55
2024-02-08T05:00:15.463Z,7.53
2024-02-08T05:11:46.613Z,7.42
2024-02-08T05:14:54.205Z,7.39
2024-02-08T05:18:03.058Z,7.38
2024-02-08T05:21:14.628Z,7.38
2024-02-08T05:24:23.039Z,7.34
2024-02-08T05:28:38.672Z,7.28
2024-02-08T05:32:25.381Z,7.24
2024-02-08T05:36:11.265Z,7.20
2024-02-08T05:40:22.531Z,7.13
2024-02-08T05:43:44.176Z,7.19
2024-02-08T05:47:14.462Z,7.09
2024-02-08T05:50:42.955Z,7.20
2024-02-08T05:54:45.259Z,7.23
2024-02-08T05:58:49.227Z,7.32
2024-02-08T06:06:18.837Z,7.53
2024-02-08T06:10:10.091Z,7.61
2024-02-08T06:13:30.895Z,7.67
2024-02-08T06:17:16.589Z,7.73
2024-02-08T06:20:43.097Z,7.79
2024-02-08T06:24:52.029Z,7.86
2024-02-08T06:28:41.514Z,7.92
2024-02-08T06:32:11.134Z,7.99
2024-02-08T06:35:50.682Z,8.03
2024-02-08T06:39:22.736Z,8.06
2024-02-08T06:43:22.377Z,8.09
2024-02-08T06:46:58.704Z,8.13
2024-02-08T06:50:27.804Z,8.17
2024-02-08T06:54:06.919Z,8.25
2024-02-08T06:57:32.753Z,8.26
2024-02-08T07:01:01.141Z,8.30
2024-02-08T07:08:41.505Z,8.32
2024-02-08T07:12:17.469Z,8.31
2024-02-08T07:15:55.183Z,8.35
2024-02-08T07:19:35.686Z,8.40
2024-02-08T07:23:08.922Z,8.41
2024-02-08T07:26:33.900Z,8.47
2024-02-08T07:30:22.106Z,8.46
2024-02-08T07:33:44.367Z,8.49
2024-02-08T07:37:28.180Z,8.55
2024-02-08T07:40:39.319Z,8.64
2024-02-08T07:43:57.038Z,8.72
2024-02-08T07:47:17.765Z,8.78
2024-02-08T07:50:39.078Z,8.90
2024-02-08T07:53:55.924Z,8.99
2024-02-08T07:57:13.118Z,9.00
2024-02-08T08:00:34.305Z,9.06
2024-02-08T08:03:45.591Z,9.13
2024-02-08T08:07:02.443Z,9.20
2024-02-08T08:10:27.956Z,9.31
2024-02-08T08:13:53.278Z,9.40
2024-02-08T08:17:33.400Z,9.49
2024-02-08T08:21:01.333Z,9.56
2024-02-08T08:24:27.276Z,9.65
2024-02-08T08:27:54.969Z,9.68
2024-02-08T08:31:18.815Z,9.72
2024-02-08T08:34:38.878Z,9.80
2024-02-08T08:38:17.630Z,9.85
2024-02-08T08:41:34.074Z,9.90
2024-02-08T08:44:58.986Z,9.96
2024-02-08T08:48:14.942Z,9.99
2024-02-08T08:51:41.142Z,9.98
2024-02-08T08:55:15.879Z,10.02
2024-02-08T08:58:52.766Z,9.98
2024-02-08T09:02:31.583Z,10.02
2024-02-08T09:10:09.339Z,9.97
2024-02-08T09:17:27.145Z,10.07
2024-02-08T09:21:15.244Z,10.13
2024-02-08T09:24:31.098Z,10.24
2024-02-08T09:27:48.876Z,10.27
2024-02-08T09:31:18.732Z,10.18
2024-02-08T09:34:46.033Z,10.13
2024-02-08T09:38:20.752Z,10.17
2024-02-08T09:41:52.679Z,10.09
2024-02-08T09:49:15.263Z,10.01
2024-02-08T09:52:55.771Z,10.00
2024-02-08T09:56:27.192Z,9.96
2024-02-08T10:00:04.916Z,9.91
2024-02-08T10:03:33.833Z,9.94
2024-02-08T10:11:25.983Z,10.02
2024-02-08T10:14:58.970Z,10.08
2024-02-08T10:18:25.363Z,9.98
2024-02-08T10:21:56.520Z,9.92
2024-02-08T10:29:26.850Z,10.08
2024-02-08T10:32:41.161Z,10.19
2024-02-08T10:35:50.354Z,10.27
2024-02-08T10:39:10.110Z,10.27
2024-02-08T10:42:25.301Z,10.33
2024-02-08T10:45:50.836Z,10.35
2024-02-08T10:49:10.992Z,10.39
2024-02-08T10:52:25.167Z,10.42
2024-02-08T10:55:41.689Z,10.37
2024-02-08T10:58:57.863Z,10.36
2024-02-08T11:02:31.104Z,10.39
2024-02-08T11:06:02.829Z,10.49
2024-02-08T11:09:27.521Z,10.58
2024-02-08T11:12:42.676Z,10.70
2024-02-08T11:15:58.121Z,10.80
2024-02-08T11:19:11.049Z,10.89
2024-02-08T11:22:39.274Z,10.91
2024-02-08T11:25:58.609Z,10.86
2024-02-08T11:29:20.507Z,10.87
2024-02-08T11:32:33.395Z,10.93
2024-02-08T11:35:55.921Z,10.98
2024-02-08T11:39:33.304Z,10.68
2024-02-08T11:42:54.923Z,10.97
2024-02-08T11:46:08.174Z,10.89
2024-02-08T11:49:36.008Z,10.81
2024-02-08T11:56:20.556Z,10.71
2024-02-08T11:59:33.391Z,10.68
2024-02-08T12:02:59.304Z,10.36
2024-02-08T12:06:09.167Z,10.74
2024-02-08T12:09:35.649Z,10.71
2024-02-08T12:12:48.015Z,10.67
2024-02-08T12:15:58.913Z,10.56
2024-02-08T12:19:17.039Z,10.55
2024-02-08T12:22:25.753Z,10.49
2024-02-08T12:25:47.109Z,10.42
2024-02-08T12:29:02.998Z,10.33
2024-02-08T12:32:18.389Z,10.29
2024-02-08T12:35:30.216Z,10.25
2024-02-08T12:38:48.746Z,10.22
2024-02-08T12:42:02.351Z,10.22
2024-02-08T12:45:18.987Z,10.17
2024-02-08T12:48:31.093Z,10.13
2024-02-08T12:51:42.913Z,10.03
2024-02-08T12:55:02.273Z,9.98
2024-02-08T12:58:25.649Z,9.96
2024-02-08T13:01:46.216Z,9.90
2024-02-08T13:05:03.137Z,9.85
2024-02-08T13:08:13.578Z,9.80
2024-02-08T13:11:26.940Z,9.73
2024-02-08T13:14:40.166Z,9.67
2024-02-08T13:17:49.742Z,9.64
2024-02-08T13:20:57.207Z,9.67
2024-02-08T13:24:09.022Z,9.65
2024-02-08T13:27:26.292Z,9.62
2024-02-08T13:30:41.846Z,9.58
2024-02-08T13:33:49.529Z,9.57
2024-02-08T13:37:03.487Z,9.56
2024-02-08T13:40:13.521Z,9.60
2024-02-08T13:43:25.980Z,9.62
2024-02-08T13:46:47.866Z,9.64
2024-02-08T13:49:59.143Z,9.60
2024-02-08T13:53:20.940Z,9.59
2024-02-08T13:56:51.956Z,9.62
2024-02-08T14:00:22.622Z,9.63
2024-02-08T14:03:47.189Z,9.68
2024-02-08T14:07:01.778Z,9.74
2024-02-08T14:10:16.367Z,9.81
2024-02-08T14:13:41.039Z,9.84
2024-02-08T14:16:53.786Z,9.87
2024-02-08T14:20:36.169Z,9.91
2024-02-08T14:24:01.986Z,9.94
2024-02-08T14:27:21.233Z,9.94
2024-02-08T14:30:35.843Z,9.93
2024-02-08T14:42:26.721Z,9.93
2024-02-08T14:46:32.108Z,9.92
2024-02-08T14:51:41.514Z,9.92
2024-02-08T14:56:05.097Z,9.90
2024-02-08T15:00:31.021Z,9.88
2024-02-08T15:04:03.094Z,9.86
2024-02-08T15:08:13.205Z,9.85
2024-02-08T15:11:40.251Z,9.51
2024-02-08T15:15:05.706Z,9.87
2024-02-08T15:18:43.560Z,9.87
2024-02-08T15:22:21.137Z,9.90
2024-02-08T15:25:55.187Z,9.90
2024-02-08T15:29:14.244Z,7.82
2024-02-08T15:32:51.661Z,9.91
2024-02-08T15:36:12.478Z,9.89
2024-02-08T15:54:23.092Z,9.81
2024-02-08T16:09:57.516Z,9.84
2024-02-08T16:27:51.881Z,9.57
2024-02-08T16:32:20.638Z,9.47
2024-02-08T16:41:59.379Z,9.25
2024-02-08T17:09:58.135Z,9.40
2024-02-08T17:14:08.706Z,9.42
2024-02-08T17:24:32.377Z,9.53
2024-02-08T17:32:36.997Z,9.57
2024-02-08T17:36:59.880Z,9.59
2024-02-08T17:46:32.389Z,9.58
2024-02-08T17:51:39.953Z,9.58
2024-02-08T18:06:34.469Z,9.54
2024-02-08T18:11:31.652Z,9.60
2024-02-08T18:16:24.849Z,9.59
2024-02-08T18:19:57.094Z,9.60
2024-02-08T18:24:31.675Z,9.60
2024-02-08T18:29:07.681Z,9.60
2024-02-08T18:32:50.867Z,9.61
2024-02-08T18:42:27.491Z,9.58
2024-02-08T18:46:22.597Z,9.60
2024-02-08T18:50:26.592Z,9.56
2024-02-08T18:53:51.513Z,9.52
2024-02-08T18:58:08.029Z,9.53
2024-02-08T19:02:01.040Z,9.54
2024-02-08T19:07:32.875Z,9.54
2024-02-08T19:11:35.765Z,9.53
2024-02-08T19:19:55.121Z,9.59
2024-02-08T19:23:49.887Z,9.60
2024-02-08T19:32:37.013Z,9.58
2024-02-08T19:36:58.188Z,9.58
2024-02-08T19:45:56.498Z,9.63
2024-02-08T19:50:04.913Z,9.65
2024-02-08T19:53:56.388Z,9.67
2024-02-08T19:57:43.398Z,9.70
2024-02-08T20:01:18.318Z,9.72
2024-02-08T20:05:00.826Z,9.72
2024-02-08T20:08:23.606Z,9.74
2024-02-08T20:12:00.206Z,9.57
2024-02-08T20:15:30.316Z,9.75
2024-02-08T20:18:48.899Z,9.74
2024-02-08T20:22:08.683Z,9.75
2024-02-08T20:25:36.610Z,9.70
2024-02-08T20:28:59.182Z,9.66
2024-02-08T20:32:13.332Z,9.60
2024-02-08T20:35:25.423Z,9.57
2024-02-08T20:52:35.910Z,9.47
2024-02-08T21:05:53.418Z,9.44
2024-02-08T21:09:49.733Z,9.01
2024-02-08T21:14:28.984Z,9.30
2024-02-08T21:19:05.413Z,9.38
2024-02-08T21:23:57.002Z,9.43
2024-02-08T21:27:35.598Z,9.45
2024-02-08T21:30:47.251Z,9.47
2024-02-08T21:34:02.008Z,9.46
2024-02-08T21:37:11.864Z,9.49
2024-02-08T21:40:36.108Z,9.51
2024-02-08T21:43:49.829Z,9.53
2024-02-08T21:47:02.588Z,9.54
2024-02-08T21:50:15.024Z,9.52
2024-02-08T21:53:25.219Z,9.47
2024-02-08T21:56:40.641Z,9.41
2024-02-08T22:00:00.537Z,9.40
2024-02-08T22:03:16.391Z,9.40
2024-02-08T22:06:27.842Z,9.36
2024-02-08T22:09:49.230Z,9.35
2024-02-08T22:13:05.322Z,9.33
2024-02-08T22:16:20.870Z,9.31
2024-02-08T22:19:40.186Z,9.27
2024-02-08T22:22:54.641Z,9.25
2024-02-08T22:26:14.439Z,9.22
2024-02-08T22:29:34.046Z,9.07
2024-02-08T22:32:54.222Z,8.93
2024-02-08T22:36:10.503Z,8.88
2024-02-08T22:39:18.592Z,8.87
2024-02-08T22:42:28.011Z,8.85
2024-02-08T22:45:39.217Z,8.87
2024-02-08T22:48:47.745Z,8.96
2024-02-08T22:51:55.588Z,8.97
2024-02-08T22:55:05.203Z,8.99
2024-02-08T22:58:13.775Z,8.93
2024-02-08T23:01:35.866Z,8.96
2024-02-08T23:04:43.201Z,9.02
2024-02-08T23:07:52.726Z,8.91
2024-02-08T23:10:59.872Z,8.90
2024-02-08T23:14:10.764Z,8.99
2024-02-08T23:17:22.236Z,8.98
2024-02-08T23:20:32.081Z,9.02
2024-02-08T23:23:40.248Z,9.01
2024-02-08T23:26:48.509Z,8.88
2024-02-08T23:29:55.694Z,8.71
2024-02-08T23:33:10.348Z,8.62
2024-02-08T23:36:21.336Z,8.58
2024-02-08T23:39:31.809Z,8.59
2024-02-08T23:42:42.189Z,8.53
2024-02-08T23:45:50.870Z,8.48
2024-02-08T23:49:01.431Z,8.45
2024-02-08T23:52:13.689Z,8.44
2024-02-08T23:55:29.468Z,8.45
2024-02-08T23:58:52.851Z,8.44
